createdAt,value
2023-08-23T00:01:23.420Z,63.19
2023-08-23T00:03:52.944Z,62.61
2023-08-23T00:06:19.658Z,62.45
2023-08-23T00:08:46.104Z,62.25
2023-08-23T00:11:12.537Z,62.98
2023-08-23T00:13:39.000Z,62.92
2023-08-23T00:16:05.477Z,63.19
2023-08-23T00:18:31.912Z,62.69
2023-08-23T00:20:58.364Z,62.64
2023-08-23T00:23:24.846Z,62.93
2023-08-23T00:25:51.253Z,62.85
2023-08-23T00:28:20.433Z,63.79
2023-08-23T00:30:54.025Z,63.26
2023-08-23T00:33:21.106Z,63.16
2023-08-23T00:35:48.154Z,63.60
2023-08-23T00:38:14.808Z,64.11
2023-08-23T00:40:41.244Z,63.43
2023-08-23T00:43:10.347Z,63.73
2023-08-23T00:45:37.649Z,64.08
2023-08-23T00:48:06.313Z,63.53
2023-08-23T00:50:33.969Z,63.06
2023-08-23T00:53:02.236Z,62.92
2023-08-23T00:55:29.551Z,63.10
2023-08-23T00:57:56.866Z,63.46
2023-08-23T01:00:23.596Z,63.59
2023-08-23T01:02:50.198Z,63.66
2023-08-23T01:05:17.226Z,63.02
2023-08-23T01:08:14.285Z,63.84
2023-08-23T01:10:51.564Z,64.37
2023-08-23T01:13:23.252Z,64.25
2023-08-23T01:15:50.833Z,64.48
2023-08-23T01:18:17.358Z,64.19
2023-08-23T01:20:49.653Z,64.38
2023-08-23T01:23:17.355Z,64.48
2023-08-23T01:25:51.277Z,64.70
2023-08-23T01:28:18.708Z,64.58
2023-08-23T01:30:45.808Z,64.53
2023-08-23T01:33:30.072Z,64.10
2023-08-23T01:36:14.511Z,64.03
2023-08-23T01:38:42.837Z,64.89
2023-08-23T01:41:09.705Z,64.94
2023-08-23T01:43:36.078Z,65.24
2023-08-23T01:46:02.544Z,64.86
2023-08-23T01:48:28.972Z,65.04
2023-08-23T01:50:57.017Z,64.85
2023-08-23T01:53:23.521Z,64.79
2023-08-23T01:55:49.938Z,64.40
2023-08-23T01:58:17.302Z,64.95
2023-08-23T02:00:50.246Z,64.67
2023-08-23T02:03:16.765Z,63.90
2023-08-23T02:05:43.284Z,64.15
2023-08-23T02:08:09.704Z,64.39
2023-08-23T02:10:36.203Z,64.81
2023-08-23T02:13:05.446Z,64.98
2023-08-23T02:15:32.732Z,64.40
2023-08-23T02:17:59.658Z,64.90
2023-08-23T02:20:26.057Z,65.39
2023-08-23T02:22:52.504Z,66.01
2023-08-23T02:25:18.904Z,66.05
2023-08-23T02:27:45.565Z,65.88
2023-08-23T02:30:13.332Z,64.57
2023-08-23T02:32:39.723Z,65.68
2023-08-23T02:35:06.308Z,66.78
2023-08-23T02:37:32.708Z,67.25
2023-08-23T02:39:59.592Z,66.56
2023-08-23T02:42:26.022Z,66.68
2023-08-23T02:44:52.423Z,66.07
2023-08-23T02:47:18.839Z,66.27
2023-08-23T02:49:45.267Z,66.00
2023-08-23T02:52:11.668Z,66.06
2023-08-23T02:54:38.063Z,66.53
2023-08-23T02:57:04.688Z,66.99
2023-08-23T02:59:31.308Z,66.89
2023-08-23T03:01:57.710Z,67.92
2023-08-23T03:04:24.122Z,67.15
2023-08-23T03:06:50.537Z,67.71
2023-08-23T03:09:16.925Z,69.45
2023-08-23T03:11:43.358Z,69.19
2023-08-23T03:14:09.769Z,70.57
2023-08-23T03:16:36.277Z,70.49
2023-08-23T03:19:02.877Z,69.75
2023-08-23T03:21:29.297Z,69.90
2023-08-23T03:23:55.689Z,69.41
2023-08-23T03:26:22.045Z,69.39
2023-08-23T03:28:48.605Z,67.90
2023-08-23T03:31:15.094Z,67.39
2023-08-23T03:33:41.571Z,67.43
2023-08-23T03:36:07.961Z,67.14
2023-08-23T03:38:34.411Z,66.63
2023-08-23T03:41:01.016Z,66.75
2023-08-23T03:43:27.430Z,66.43
2023-08-23T03:45:53.860Z,67.29
2023-08-23T03:48:20.333Z,66.51
2023-08-23T03:50:46.777Z,66.61
2023-08-23T03:53:13.178Z,67.79
2023-08-23T03:55:39.548Z,67.81
2023-08-23T03:58:06.258Z,67.38
2023-08-23T04:00:32.751Z,67.42
2023-08-23T04:02:59.457Z,67.67
2023-08-23T04:05:26.053Z,67.48
2023-08-23T04:07:52.421Z,67.43
2023-08-23T04:10:18.898Z,67.67
2023-08-23T04:12:45.290Z,68.30
2023-08-23T04:15:12.103Z,68.89
2023-08-23T04:17:38.563Z,68.31
2023-08-23T04:20:07.354Z,67.93
2023-08-23T04:22:33.785Z,67.90
2023-08-23T04:25:00.259Z,67.81
2023-08-23T04:27:26.622Z,67.82
2023-08-23T04:29:53.001Z,67.04
2023-08-23T04:32:19.680Z,66.87
2023-08-23T04:34:46.082Z,67.42
2023-08-23T04:37:12.495Z,68.24
2023-08-23T04:39:38.941Z,68.06
2023-08-23T04:42:06.534Z,68.59
2023-08-23T04:44:32.907Z,68.22
2023-08-23T04:46:59.655Z,68.28
2023-08-23T04:49:26.130Z,68.72
2023-08-23T04:51:52.584Z,67.60
2023-08-23T04:54:19.037Z,67.58
2023-08-23T04:56:45.469Z,67.13
2023-08-23T04:59:11.920Z,66.76
2023-08-23T05:01:38.429Z,67.00
2023-08-23T05:04:05.813Z,67.61
2023-08-23T05:06:34.435Z,68.99
2023-08-23T05:09:02.023Z,69.17
2023-08-23T05:11:28.407Z,69.99
2023-08-23T05:13:54.944Z,70.52
2023-08-23T05:16:21.426Z,71.15
2023-08-23T05:18:47.867Z,71.17
2023-08-23T05:21:15.299Z,71.59
2023-08-23T05:23:41.747Z,70.92
2023-08-23T05:26:08.195Z,71.10
2023-08-23T05:28:34.823Z,71.47
2023-08-23T05:31:02.679Z,72.03
2023-08-23T05:33:29.302Z,72.40
2023-08-23T05:35:55.762Z,73.39
2023-08-23T05:38:24.318Z,73.75
2023-08-23T05:40:52.701Z,73.20
2023-08-23T05:43:19.100Z,71.62
2023-08-23T05:45:45.561Z,72.07
2023-08-23T05:48:12.320Z,72.15
2023-08-23T05:50:38.798Z,72.02
2023-08-23T05:53:10.730Z,71.68
2023-08-23T05:55:37.889Z,71.91
2023-08-23T05:58:04.515Z,71.98
2023-08-23T06:00:31.110Z,72.05
2023-08-23T06:02:57.559Z,72.22
2023-08-23T06:05:24.096Z,73.27
2023-08-23T06:07:50.786Z,74.46
2023-08-23T06:10:17.665Z,74.49
2023-08-23T06:12:44.274Z,74.94
2023-08-23T06:15:10.990Z,74.83
2023-08-23T06:17:37.490Z,74.54
2023-08-23T06:20:05.872Z,73.77
2023-08-23T06:22:32.637Z,73.41
2023-08-23T06:24:59.130Z,74.01
2023-08-23T06:27:25.550Z,73.76
2023-08-23T06:29:52.115Z,74.49
2023-08-23T06:32:18.552Z,73.63
2023-08-23T06:34:45.024Z,74.04
2023-08-23T06:37:12.268Z,73.81
2023-08-23T06:39:38.643Z,73.77
2023-08-23T06:42:05.360Z,73.92
2023-08-23T06:44:31.928Z,74.06
2023-08-23T06:46:58.414Z,74.09
2023-08-23T06:49:24.867Z,74.00
2023-08-23T06:51:58.675Z,73.56
2023-08-23T06:54:25.039Z,72.37
2023-08-23T06:56:53.942Z,72.13
2023-08-23T06:59:20.364Z,72.67
2023-08-23T07:01:47.610Z,72.61
2023-08-23T07:04:15.252Z,72.02
2023-08-23T07:06:42.811Z,71.81
2023-08-23T07:09:09.289Z,71.27
2023-08-23T07:11:35.720Z,71.29
2023-08-23T07:14:02.113Z,71.24
2023-08-23T07:16:28.593Z,70.80
2023-08-23T07:18:55.448Z,70.56
2023-08-23T07:21:21.851Z,70.33
2023-08-23T07:23:48.273Z,70.40
2023-08-23T07:26:15.007Z,70.10
2023-08-23T07:28:41.424Z,69.10
2023-08-23T07:31:08.000Z,69.21
2023-08-23T07:33:34.835Z,68.70
2023-08-23T07:36:02.220Z,69.10
2023-08-23T07:38:33.404Z,68.50
2023-08-23T07:41:02.174Z,68.50
2023-08-23T07:43:28.612Z,68.23
2023-08-23T07:46:04.583Z,68.23
2023-08-23T07:48:31.196Z,68.90
2023-08-23T07:50:58.082Z,68.57
2023-08-23T07:53:24.976Z,68.01
2023-08-23T07:55:51.559Z,68.56
2023-08-23T07:58:18.165Z,68.38
2023-08-23T08:00:49.284Z,67.23
2023-08-23T08:03:15.663Z,67.04
2023-08-23T08:05:42.680Z,66.66
2023-08-23T08:08:10.279Z,65.88
2023-08-23T08:10:37.609Z,64.79
2023-08-23T08:13:04.489Z,64.77
2023-08-23T08:15:32.318Z,65.11
2023-08-23T08:17:58.789Z,64.09
2023-08-23T08:20:26.213Z,64.39
2023-08-23T08:22:58.636Z,64.01
2023-08-23T08:25:25.200Z,63.74
2023-08-23T08:27:52.359Z,63.67
2023-08-23T08:30:19.424Z,62.98
2023-08-23T08:32:45.914Z,63.96
2023-08-23T08:35:12.407Z,64.34
2023-08-23T08:37:38.925Z,64.02
2023-08-23T08:40:06.008Z,65.14
2023-08-23T08:42:33.393Z,65.17
2023-08-23T08:45:00.419Z,66.30
2023-08-23T08:47:27.133Z,65.95
2023-08-23T08:49:54.335Z,64.56
2023-08-23T08:52:25.784Z,63.59
2023-08-23T08:54:54.538Z,63.07
2023-08-23T08:57:32.401Z,62.68
2023-08-23T09:00:00.451Z,61.61
2023-08-23T09:02:28.780Z,61.96
2023-08-23T09:05:04.249Z,62.24
2023-08-23T09:07:31.043Z,61.01
2023-08-23T09:09:58.675Z,61.20
2023-08-23T09:12:25.370Z,59.78
2023-08-23T09:14:51.820Z,60.22
2023-08-23T09:17:23.256Z,60.47
2023-08-23T09:19:50.551Z,60.03
2023-08-23T09:22:21.948Z,59.17
2023-08-23T09:24:48.800Z,58.79
2023-08-23T09:27:34.815Z,59.10
2023-08-23T09:30:05.210Z,58.82
2023-08-23T09:32:31.723Z,58.63
2023-08-23T09:34:58.809Z,59.42
2023-08-23T09:37:28.182Z,57.95
2023-08-23T09:39:54.668Z,57.80
2023-08-23T09:42:21.327Z,55.58
2023-08-23T09:44:49.870Z,56.01
2023-08-23T09:47:21.694Z,54.81
2023-08-23T09:49:50.180Z,53.44
2023-08-23T09:52:18.761Z,53.62
2023-08-23T09:55:08.624Z,54.34
2023-08-23T09:57:41.881Z,52.06
2023-08-23T10:00:09.465Z,52.86
2023-08-23T10:02:37.852Z,53.60
2023-08-23T10:05:08.003Z,51.59
2023-08-23T10:07:35.508Z,50.82
2023-08-23T10:10:03.167Z,51.35
2023-08-23T10:12:30.989Z,51.57
2023-08-23T10:14:58.640Z,51.31
2023-08-23T10:17:26.684Z,51.69
2023-08-23T10:19:53.995Z,51.70
2023-08-23T10:22:20.932Z,52.13
2023-08-23T10:24:51.320Z,50.85
2023-08-23T10:27:18.580Z,49.44
2023-08-23T10:29:51.953Z,49.62
2023-08-23T10:32:19.021Z,49.53
2023-08-23T10:34:45.914Z,49.54
2023-08-23T10:37:20.802Z,50.60
2023-08-23T10:39:52.036Z,50.87
2023-08-23T10:42:19.268Z,49.50
2023-08-23T10:44:47.688Z,50.02
2023-08-23T10:47:16.631Z,49.99
2023-08-23T10:49:44.297Z,48.86
2023-08-23T10:52:11.332Z,49.20
2023-08-23T10:54:37.825Z,48.24
2023-08-23T10:57:04.364Z,49.10
2023-08-23T10:59:30.779Z,46.83
2023-08-23T11:01:57.404Z,47.64
2023-08-23T11:04:24.578Z,48.53
2023-08-23T11:06:52.243Z,45.81
2023-08-23T11:09:19.444Z,47.05
2023-08-23T11:11:45.854Z,44.98
2023-08-23T11:14:12.335Z,44.06
2023-08-23T11:16:40.046Z,45.18
2023-08-23T11:19:10.706Z,40.94
2023-08-23T11:21:37.301Z,40.45
2023-08-23T11:24:07.475Z,38.50
2023-08-23T11:26:34.801Z,37.31
2023-08-23T11:29:01.433Z,37.68
2023-08-23T11:31:28.715Z,39.59
2023-08-23T11:33:55.327Z,39.87
2023-08-23T11:36:22.489Z,40.32
2023-08-23T11:38:49.882Z,39.79
2023-08-23T11:41:27.318Z,40.25
2023-08-23T11:43:53.969Z,38.82
2023-08-23T11:46:23.523Z,40.08
2023-08-23T11:48:51.868Z,39.21
2023-08-23T11:51:18.244Z,37.79
2023-08-23T11:53:53.974Z,39.17
2023-08-23T11:56:25.174Z,37.86
2023-08-23T11:58:51.639Z,38.33
2023-08-23T12:01:18.629Z,37.33
2023-08-23T12:03:45.926Z,38.23
2023-08-23T12:06:12.538Z,38.67
2023-08-23T12:08:39.010Z,38.43
2023-08-23T12:11:05.965Z,37.65
2023-08-23T12:13:32.422Z,38.98
2023-08-23T12:15:58.942Z,36.87
2023-08-23T12:18:25.620Z,38.38
2023-08-23T12:20:52.080Z,36.80
2023-08-23T12:23:18.466Z,37.08
2023-08-23T12:25:44.856Z,37.63
2023-08-23T12:28:11.757Z,37.97
2023-08-23T12:30:38.162Z,39.38
2023-08-23T12:33:04.803Z,37.87
2023-08-23T12:35:31.244Z,36.71
2023-08-23T12:37:57.708Z,36.39
2023-08-23T12:40:24.174Z,36.51
2023-08-23T12:42:50.652Z,35.76
2023-08-23T12:45:17.145Z,34.59
2023-08-23T12:47:43.611Z,36.35
2023-08-23T12:50:10.541Z,35.90
2023-08-23T12:52:38.425Z,34.14
2023-08-23T12:55:05.449Z,35.54
2023-08-23T12:57:33.533Z,34.55
2023-08-23T13:00:06.449Z,36.88
2023-08-23T13:02:38.360Z,36.78
2023-08-23T13:05:05.120Z,34.79
2023-08-23T13:07:31.489Z,35.44
2023-08-23T13:09:59.756Z,36.02
2023-08-23T13:12:26.944Z,34.59
2023-08-23T13:14:53.642Z,35.82
2023-08-23T13:17:20.272Z,33.05
2023-08-23T13:19:46.718Z,33.89
2023-08-23T13:22:13.114Z,33.44
2023-08-23T13:24:39.533Z,33.09
2023-08-23T13:27:06.080Z,32.50
2023-08-23T13:29:32.862Z,30.73
2023-08-23T13:32:00.040Z,32.69
2023-08-23T13:34:27.284Z,33.07
2023-08-23T13:36:53.641Z,30.92
2023-08-23T13:39:20.014Z,33.15
2023-08-23T13:41:46.449Z,33.29
2023-08-23T13:44:13.622Z,31.53
2023-08-23T13:46:40.162Z,32.56
2023-08-23T13:49:06.542Z,31.33
2023-08-23T13:51:32.937Z,31.23
2023-08-23T13:53:59.695Z,32.21
2023-08-23T13:56:26.167Z,34.72
2023-08-23T13:58:54.269Z,33.07
2023-08-23T14:01:22.509Z,32.89
2023-08-23T14:03:48.986Z,33.52
2023-08-23T14:06:15.374Z,33.82
2023-08-23T14:08:41.810Z,33.82
2023-08-23T14:11:08.306Z,33.58
2023-08-23T14:13:34.710Z,34.38
2023-08-23T14:16:01.203Z,33.83
2023-08-23T14:18:28.193Z,35.49
2023-08-23T14:20:54.830Z,33.37
2023-08-23T14:23:21.377Z,31.02
2023-08-23T14:25:47.888Z,31.68
2023-08-23T14:28:14.333Z,32.08
2023-08-23T14:30:42.317Z,32.76
2023-08-23T14:33:08.881Z,30.94
2023-08-23T14:35:35.289Z,30.38
2023-08-23T14:38:01.710Z,31.59
2023-08-23T14:40:28.077Z,30.79
2023-08-23T14:42:54.465Z,32.28
2023-08-23T14:45:21.604Z,30.67
2023-08-23T14:47:48.711Z,28.63
2023-08-23T14:50:15.470Z,29.10
2023-08-23T14:52:41.880Z,29.31
2023-08-23T14:55:10.346Z,29.06
2023-08-23T14:57:38.551Z,30.91
2023-08-23T15:00:05.861Z,31.61
2023-08-23T15:02:33.390Z,27.50
2023-08-23T15:05:01.356Z,27.82
2023-08-23T15:07:27.751Z,28.14
2023-08-23T15:09:54.137Z,28.28
2023-08-23T15:12:20.560Z,27.39
2023-08-23T15:14:46.987Z,27.40
2023-08-23T15:17:13.375Z,28.16
2023-08-23T15:19:42.141Z,29.23
2023-08-23T15:22:08.562Z,28.80
2023-08-23T15:24:34.959Z,26.27
2023-08-23T15:27:01.343Z,26.41
2023-08-23T15:29:38.723Z,24.92
2023-08-23T15:32:08.178Z,26.66
2023-08-23T15:34:35.566Z,26.87
2023-08-23T15:37:03.957Z,27.55
2023-08-23T15:39:30.953Z,29.13
2023-08-23T15:41:58.321Z,28.28
2023-08-23T15:44:25.734Z,27.83
2023-08-23T15:46:52.195Z,27.22
2023-08-23T15:49:18.570Z,27.35
2023-08-23T15:51:45.126Z,27.12
2023-08-23T15:54:11.548Z,28.06
2023-08-23T15:56:37.995Z,27.85
2023-08-23T15:59:04.492Z,26.67
2023-08-23T16:01:32.592Z,24.78
2023-08-23T16:03:59.020Z,25.72
2023-08-23T16:06:25.648Z,25.56
2023-08-23T16:08:52.201Z,26.75
2023-08-23T16:11:18.604Z,26.72
2023-08-23T16:13:45.031Z,26.35
2023-08-23T16:16:11.610Z,26.15
2023-08-23T16:18:38.132Z,25.31
2023-08-23T16:21:04.608Z,26.82
2023-08-23T16:23:31.051Z,27.66
2023-08-23T16:25:57.930Z,27.57
2023-08-23T16:28:24.382Z,27.12
2023-08-23T16:30:51.251Z,26.30
2023-08-23T16:33:19.475Z,26.97
2023-08-23T16:35:46.129Z,27.75
2023-08-23T16:38:13.109Z,27.46
2023-08-23T16:40:39.727Z,28.45
2023-08-23T16:43:07.002Z,28.20
2023-08-23T16:45:34.416Z,28.12
2023-08-23T16:48:01.167Z,27.44
2023-08-23T16:50:27.749Z,27.81
2023-08-23T16:52:54.195Z,28.84
2023-08-23T16:55:20.608Z,28.15
2023-08-23T16:57:47.067Z,27.69
2023-08-23T17:00:14.393Z,27.92
2023-08-23T17:02:46.374Z,27.58
2023-08-23T17:05:14.469Z,28.53
2023-08-23T17:07:41.164Z,29.02
2023-08-23T17:10:07.847Z,29.12
2023-08-23T17:12:35.003Z,29.54
2023-08-23T17:15:01.425Z,29.84
2023-08-23T17:17:28.271Z,30.59
2023-08-23T17:19:54.829Z,29.15
2023-08-23T17:22:22.842Z,28.78
2023-08-23T17:24:49.234Z,30.58
2023-08-23T17:27:15.703Z,29.12
2023-08-23T17:29:42.089Z,30.82
2023-08-23T17:32:08.482Z,30.70
2023-08-23T17:34:34.888Z,30.96
2023-08-23T17:37:01.277Z,32.48
2023-08-23T17:39:27.659Z,32.09
2023-08-23T17:41:54.083Z,31.68
2023-08-23T17:44:20.564Z,31.98
2023-08-23T17:46:49.507Z,32.51
2023-08-23T17:49:16.322Z,30.59
2023-08-23T17:51:42.783Z,31.79
2023-08-23T17:54:10.377Z,31.16
2023-08-23T17:56:37.287Z,32.74
2023-08-23T17:59:06.116Z,33.26
2023-08-23T18:01:32.743Z,33.92
2023-08-23T18:03:59.151Z,34.30
2023-08-23T18:06:25.569Z,35.55
2023-08-23T18:08:52.184Z,36.62
2023-08-23T18:11:18.613Z,36.90
2023-08-23T18:13:45.034Z,37.54
2023-08-23T18:16:11.526Z,37.28
2023-08-23T18:18:37.969Z,37.61
2023-08-23T18:21:04.347Z,37.99
2023-08-23T18:23:30.763Z,38.46
2023-08-23T18:25:57.912Z,37.96
2023-08-23T18:28:24.405Z,38.18
2023-08-23T18:30:51.138Z,39.71
2023-08-23T18:33:17.721Z,39.22
2023-08-23T18:35:44.286Z,39.32
2023-08-23T18:38:10.818Z,39.19
2023-08-23T18:40:37.410Z,39.44
2023-08-23T18:43:04.019Z,39.47
2023-08-23T18:45:30.544Z,40.52
2023-08-23T18:47:57.065Z,40.89
2023-08-23T18:50:23.470Z,41.64
2023-08-23T18:52:51.404Z,41.27
2023-08-23T18:55:18.820Z,41.66
2023-08-23T18:57:48.207Z,42.10
2023-08-23T19:00:15.893Z,42.00
2023-08-23T19:02:42.840Z,41.36
2023-08-23T19:05:09.539Z,42.02
2023-08-23T19:07:36.152Z,42.09
2023-08-23T19:10:03.546Z,41.83
2023-08-23T19:12:33.279Z,41.13
2023-08-23T19:15:02.084Z,41.66
2023-08-23T19:17:28.591Z,41.52
2023-08-23T19:19:56.629Z,41.18
2023-08-23T19:22:23.398Z,41.04
2023-08-23T19:24:49.988Z,41.79
2023-08-23T19:27:16.629Z,41.78
2023-08-23T19:29:43.137Z,41.26
2023-08-23T19:32:11.926Z,40.57
2023-08-23T19:34:38.571Z,41.86
2023-08-23T19:37:07.301Z,42.84
2023-08-23T19:39:35.571Z,42.34
2023-08-23T19:42:02.065Z,42.83
2023-08-23T19:44:28.547Z,43.29
2023-08-23T19:46:55.099Z,43.60
2023-08-23T19:49:21.586Z,44.36
2023-08-23T19:51:49.809Z,44.02
2023-08-23T19:54:17.436Z,44.50
2023-08-23T19:56:43.856Z,44.26
2023-08-23T19:59:11.015Z,44.28
2023-08-23T20:01:37.523Z,44.40
2023-08-23T20:04:04.093Z,44.57
2023-08-23T20:06:30.492Z,44.58
2023-08-23T20:08:56.912Z,44.86
2023-08-23T20:11:23.317Z,44.36
2023-08-23T20:13:49.846Z,44.72
2023-08-23T20:16:16.368Z,44.42
2023-08-23T20:18:42.953Z,44.82
2023-08-23T20:21:09.369Z,44.88
2023-08-23T20:23:35.886Z,45.76
2023-08-23T20:26:03.205Z,45.14
2023-08-23T20:28:29.768Z,44.73
2023-08-23T20:30:58.960Z,44.07
2023-08-23T20:33:25.700Z,44.54
2023-08-23T20:35:52.719Z,45.58
2023-08-23T20:38:19.134Z,45.57
2023-08-23T20:40:45.619Z,45.86
2023-08-23T20:43:12.044Z,45.08
2023-08-23T20:45:41.432Z,45.29
2023-08-23T20:48:08.255Z,45.67
2023-08-23T20:50:34.885Z,45.18
2023-08-23T20:53:01.316Z,45.67
2023-08-23T20:55:27.784Z,45.60
2023-08-23T20:57:54.269Z,45.48
2023-08-23T21:00:20.728Z,46.18
2023-08-23T21:02:47.465Z,46.17
2023-08-23T21:05:14.112Z,46.43
2023-08-23T21:07:40.525Z,46.55
2023-08-23T21:10:07.359Z,46.12
2023-08-23T21:12:35.276Z,47.02
2023-08-23T21:15:01.785Z,46.71
2023-08-23T21:17:28.432Z,46.89
2023-08-23T21:19:55.153Z,46.54
2023-08-23T21:22:21.621Z,46.27
2023-08-23T21:24:48.218Z,47.02
2023-08-23T21:27:16.186Z,46.74
2023-08-23T21:29:44.360Z,47.03
2023-08-23T21:32:10.748Z,47.25
2023-08-23T21:34:37.194Z,47.00
2023-08-23T21:37:03.667Z,47.32
2023-08-23T21:39:30.085Z,48.26
2023-08-23T21:41:58.584Z,47.41
2023-08-23T21:44:25.124Z,47.76
2023-08-23T21:46:53.902Z,47.95
2023-08-23T21:49:20.510Z,48.24
2023-08-23T21:51:46.988Z,48.85
2023-08-23T21:54:13.473Z,48.87
2023-08-23T21:56:39.921Z,49.13
2023-08-23T21:59:09.663Z,48.90
2023-08-23T22:01:36.179Z,49.77
2023-08-23T22:04:03.547Z,49.83
2023-08-23T22:06:30.554Z,49.32
2023-08-23T22:08:57.479Z,48.70
2023-08-23T22:11:24.020Z,49.88
2023-08-23T22:13:50.475Z,50.26
2023-08-23T22:16:17.028Z,50.16
2023-08-23T22:18:43.558Z,50.34
2023-08-23T22:21:11.064Z,50.37
2023-08-23T22:23:37.685Z,50.61
2023-08-23T22:26:04.960Z,50.28
2023-08-23T22:28:32.053Z,50.45
2023-08-23T22:30:58.597Z,50.59
2023-08-23T22:33:27.138Z,50.95
2023-08-23T22:35:58.719Z,51.22
2023-08-23T22:38:25.753Z,51.31
2023-08-23T22:40:52.696Z,51.47
2023-08-23T22:43:19.633Z,51.50
2023-08-23T22:45:46.158Z,51.85
2023-08-23T22:48:13.303Z,51.63
2023-08-23T22:50:39.866Z,52.08
2023-08-23T22:53:06.368Z,52.23
2023-08-23T22:55:32.878Z,51.27
2023-08-23T22:57:59.483Z,51.42
2023-08-23T23:00:25.929Z,52.80
2023-08-23T23:02:52.617Z,52.59
2023-08-23T23:05:19.200Z,54.21
2023-08-23T23:07:45.601Z,54.39
2023-08-23T23:10:12.061Z,54.49
2023-08-23T23:12:39.478Z,54.32
2023-08-23T23:15:09.266Z,54.80
2023-08-23T23:17:38.051Z,55.09
2023-08-23T23:20:12.381Z,55.96
2023-08-23T23:22:39.122Z,55.62
2023-08-23T23:25:07.544Z,55.62
2023-08-23T23:27:34.859Z,55.80
2023-08-23T23:30:01.297Z,56.94
2023-08-23T23:32:28.083Z,56.87
2023-08-23T23:34:54.569Z,56.31
2023-08-23T23:37:20.990Z,56.69
2023-08-23T23:39:47.403Z,56.79
2023-08-23T23:42:13.826Z,56.00
2023-08-23T23:44:40.254Z,56.24
2023-08-23T23:47:06.839Z,56.68
2023-08-23T23:49:33.212Z,56.33
2023-08-23T23:51:59.573Z,56.10
2023-08-23T23:54:26.038Z,56.09
2023-08-23T23:56:52.440Z,56.64
2023-08-23T23:59:18.834Z,56.91
